sensor_id;sensor_type;location;lat;lon;timestamp;pressure;altitude;pressure_sealevel;temperature;humidity
19259;BME280;9763;48.780;9.212;2023-07-20T00:01:59;98198.47;;;25.12;35.16
19259;BME280;9763;48.780;9.212;2023-07-20T00:05:25;98205.84;;;25.04;35.59
19259;BME280;9763;48.780;9.212;2023-07-20T00:08:50;98204.53;;;24.93;35.38
19259;BME280;9763;48.780;9.212;2023-07-20T00:12:14;98193.28;;;24.76;35.54
19259;BME280;9763;48.780;9.212;2023-07-20T00:15:38;98208.09;;;24.79;35.60
19259;BME280;9763;48.780;9.212;2023-07-20T00:19:02;98205.59;;;24.71;35.95
19259;BME280;9763;48.780;9.212;2023-07-20T00:22:28;98210.03;;;24.64;35.27
19259;BME280;9763;48.780;9.212;2023-07-20T00:25:53;98205.03;;;24.54;35.33
19259;BME280;9763;48.780;9.212;2023-07-20T00:29:17;98208.31;;;24.50;35.71
19259;BME280;9763;48.780;9.212;2023-07-20T00:32:42;98200.41;;;24.41;35.94
19259;BME280;9763;48.780;9.212;2023-07-20T00:36:06;98209.03;;;24.37;35.63
19259;BME280;9763;48.780;9.212;2023-07-20T00:39:30;98208.13;;;24.30;35.57
19259;BME280;9763;48.780;9.212;2023-07-20T00:42:55;98206.03;;;24.25;35.82
19259;BME280;9763;48.780;9.212;2023-07-20T00:46:22;98211.09;;;24.20;35.98
19259;BME280;9763;48.780;9.212;2023-07-20T00:49:47;98209.81;;;24.16;35.80
19259;BME280;9763;48.780;9.212;2023-07-20T00:53:11;98205.06;;;24.12;35.47
19259;BME280;9763;48.780;9.212;2023-07-20T00:56:35;98213.63;;;24.07;35.49
19259;BME280;9763;48.780;9.212;2023-07-20T01:00:01;98216.88;;;24.02;36.04
19259;BME280;9763;48.780;9.212;2023-07-20T01:03:25;98223.41;;;24.00;35.80
19259;BME280;9763;48.780;9.212;2023-07-20T01:06:58;98199.25;;;23.87;35.91
19259;BME280;9763;48.780;9.212;2023-07-20T01:10:33;98212.41;;;23.88;36.06
19259;BME280;9763;48.780;9.212;2023-07-20T01:14:00;98201.66;;;23.82;35.94
19259;BME280;9763;48.780;9.212;2023-07-20T01:17:25;98209.00;;;23.80;35.84
19259;BME280;9763;48.780;9.212;2023-07-20T01:20:49;98204.44;;;23.74;36.17
19259;BME280;9763;48.780;9.212;2023-07-20T01:24:41;98217.13;;;23.72;36.21
19259;BME280;9763;48.780;9.212;2023-07-20T01:28:48;98206.59;;;23.63;35.96
19259;BME280;9763;48.780;9.212;2023-07-20T01:32:23;98213.47;;;23.58;35.87
19259;BME280;9763;48.780;9.212;2023-07-20T01:35:54;98210.56;;;23.53;36.37
19259;BME280;9763;48.780;9.212;2023-07-20T01:39:19;98213.09;;;23.46;36.20
19259;BME280;9763;48.780;9.212;2023-07-20T01:42:46;98202.09;;;23.34;36.10
19259;BME280;9763;48.780;9.212;2023-07-20T01:46:09;98211.56;;;23.37;36.84
19259;BME280;9763;48.780;9.212;2023-07-20T01:49:34;98206.78;;;23.32;36.23
19259;BME280;9763;48.780;9.212;2023-07-20T01:52:58;98207.53;;;23.26;36.53
19259;BME280;9763;48.780;9.212;2023-07-20T01:56:21;98205.59;;;23.20;36.64
19259;BME280;9763;48.780;9.212;2023-07-20T01:59:45;98210.66;;;23.15;37.30
19259;BME280;9763;48.780;9.212;2023-07-20T02:03:09;98214.69;;;23.11;36.72
19259;BME280;9763;48.780;9.212;2023-07-20T02:06:35;98216.06;;;23.07;36.62
19259;BME280;9763;48.780;9.212;2023-07-20T02:09:59;98214.81;;;23.03;37.62
19259;BME280;9763;48.780;9.212;2023-07-20T02:13:23;98212.31;;;23.02;37.02
19259;BME280;9763;48.780;9.212;2023-07-20T02:16:47;98215.50;;;22.97;37.31
19259;BME280;9763;48.780;9.212;2023-07-20T02:20:15;98221.41;;;22.92;37.01
19259;BME280;9763;48.780;9.212;2023-07-20T02:23:41;98214.13;;;22.86;37.18
19259;BME280;9763;48.780;9.212;2023-07-20T02:27:05;98219.81;;;22.83;37.10
19259;BME280;9763;48.780;9.212;2023-07-20T02:30:29;98217.72;;;22.79;37.38
19259;BME280;9763;48.780;9.212;2023-07-20T02:33:52;98212.06;;;22.74;37.51
19259;BME280;9763;48.780;9.212;2023-07-20T02:37:16;98208.31;;;22.68;37.88
19259;BME280;9763;48.780;9.212;2023-07-20T02:40:41;98212.16;;;22.66;37.34
19259;BME280;9763;48.780;9.212;2023-07-20T02:44:05;98216.19;;;22.61;37.54
19259;BME280;9763;48.780;9.212;2023-07-20T02:47:29;98214.91;;;22.57;37.52
19259;BME280;9763;48.780;9.212;2023-07-20T02:50:53;98227.91;;;22.52;37.96
19259;BME280;9763;48.780;9.212;2023-07-20T02:54:17;98231.91;;;22.48;37.93
19259;BME280;9763;48.780;9.212;2023-07-20T02:57:42;98227.81;;;22.46;37.78
19259;BME280;9763;48.780;9.212;2023-07-20T03:01:05;98231.81;;;22.42;37.54
19259;BME280;9763;48.780;9.212;2023-07-20T03:04:29;98235.34;;;22.34;37.88
19259;BME280;9763;48.780;9.212;2023-07-20T03:07:53;98235.56;;;22.33;38.31
19259;BME280;9763;48.780;9.212;2023-07-20T03:11:18;98243.53;;;22.33;37.84
19259;BME280;9763;48.780;9.212;2023-07-20T03:14:44;98243.72;;;22.31;38.54
19259;BME280;9763;48.780;9.212;2023-07-20T03:18:07;98244.38;;;22.33;38.18
19259;BME280;9763;48.780;9.212;2023-07-20T03:21:31;98242.53;;;22.34;37.85
19259;BME280;9763;48.780;9.212;2023-07-20T03:24:55;98243.34;;;22.34;38.75
19259;BME280;9763;48.780;9.212;2023-07-20T03:28:18;98245.38;;;22.32;38.19
19259;BME280;9763;48.780;9.212;2023-07-20T03:31:43;98250.03;;;22.30;38.46
19259;BME280;9763;48.780;9.212;2023-07-20T03:35:08;98248.38;;;22.29;38.09
19259;BME280;9763;48.780;9.212;2023-07-20T03:38:32;98233.31;;;22.21;38.74
19259;BME280;9763;48.780;9.212;2023-07-20T03:41:57;98245.25;;;22.25;38.61
19259;BME280;9763;48.780;9.212;2023-07-20T03:45:21;98248.06;;;22.24;38.29
19259;BME280;9763;48.780;9.212;2023-07-20T03:48:47;98255.41;;;22.22;38.44
19259;BME280;9763;48.780;9.212;2023-07-20T03:52:11;98252.72;;;22.22;38.92
19259;BME280;9763;48.780;9.212;2023-07-20T03:55:34;98254.38;;;22.23;38.67
19259;BME280;9763;48.780;9.212;2023-07-20T03:58:58;98251.56;;;22.24;38.88
19259;BME280;9763;48.780;9.212;2023-07-20T04:02:23;98252.69;;;22.30;38.70
19259;BME280;9763;48.780;9.212;2023-07-20T04:05:48;98254.59;;;22.44;39.04
19259;BME280;9763;48.780;9.212;2023-07-20T04:09:12;98252.59;;;22.61;39.04
19259;BME280;9763;48.780;9.212;2023-07-20T04:12:36;98252.66;;;22.76;38.90
19259;BME280;9763;48.780;9.212;2023-07-20T04:16:00;98262.88;;;22.87;38.60
19259;BME280;9763;48.780;9.212;2023-07-20T04:19:24;98259.59;;;22.99;38.84
19259;BME280;9763;48.780;9.212;2023-07-20T04:22:50;98269.50;;;23.20;38.86
19259;BME280;9763;48.780;9.212;2023-07-20T04:26:14;98277.81;;;23.40;38.98
19259;BME280;9763;48.780;9.212;2023-07-20T04:29:37;98259.44;;;23.60;38.95
19259;BME280;9763;48.780;9.212;2023-07-20T04:33:01;98265.16;;;23.93;39.38
19259;BME280;9763;48.780;9.212;2023-07-20T04:36:25;98263.31;;;24.29;39.27
19259;BME280;9763;48.780;9.212;2023-07-20T04:39:51;98258.72;;;24.66;39.20
19259;BME280;9763;48.780;9.212;2023-07-20T04:43:15;98269.31;;;25.02;39.10
19259;BME280;9763;48.780;9.212;2023-07-20T04:46:39;98260.91;;;25.39;38.96
19259;BME280;9763;48.780;9.212;2023-07-20T04:50:07;98265.06;;;25.83;38.17
19259;BME280;9763;48.780;9.212;2023-07-20T04:53:31;98256.34;;;26.29;38.44
19259;BME280;9763;48.780;9.212;2023-07-20T04:56:57;98261.13;;;26.79;37.73
19259;BME280;9763;48.780;9.212;2023-07-20T05:00:21;98259.47;;;27.24;37.07
19259;BME280;9763;48.780;9.212;2023-07-20T05:03:45;98260.78;;;27.67;36.91
19259;BME280;9763;48.780;9.212;2023-07-20T05:07:09;98262.66;;;28.11;36.79
19259;BME280;9763;48.780;9.212;2023-07-20T05:10:33;98262.19;;;28.52;36.32
19259;BME280;9763;48.780;9.212;2023-07-20T05:13:58;98264.59;;;28.91;35.64
19259;BME280;9763;48.780;9.212;2023-07-20T05:17:22;98251.66;;;29.25;35.98
19259;BME280;9763;48.780;9.212;2023-07-20T05:20:46;98255.22;;;29.62;35.18
19259;BME280;9763;48.780;9.212;2023-07-20T05:24:10;98264.53;;;29.96;34.91
19259;BME280;9763;48.780;9.212;2023-07-20T05:27:35;98253.97;;;30.42;34.80
19259;BME280;9763;48.780;9.212;2023-07-20T05:31:02;98251.13;;;30.91;34.24
19259;BME280;9763;48.780;9.212;2023-07-20T05:34:26;98246.09;;;31.29;33.45
19259;BME280;9763;48.780;9.212;2023-07-20T05:37:50;98257.31;;;31.73;33.65
19259;BME280;9763;48.780;9.212;2023-07-20T05:41:13;98243.28;;;32.16;32.85
19259;BME280;9763;48.780;9.212;2023-07-20T05:44:37;98253.69;;;32.36;32.46
19259;BME280;9763;48.780;9.212;2023-07-20T05:48:05;98251.53;;;32.09;31.65
19259;BME280;9763;48.780;9.212;2023-07-20T05:51:28;98251.03;;;32.12;32.16
19259;BME280;9763;48.780;9.212;2023-07-20T05:54:53;98248.69;;;32.16;31.64
19259;BME280;9763;48.780;9.212;2023-07-20T05:58:17;98254.66;;;32.46;31.49
19259;BME280;9763;48.780;9.212;2023-07-20T06:01:41;98248.97;;;32.93;30.99
19259;BME280;9763;48.780;9.212;2023-07-20T06:05:08;98257.31;;;33.47;30.71
19259;BME280;9763;48.780;9.212;2023-07-20T06:08:31;98261.63;;;33.65;30.42
19259;BME280;9763;48.780;9.212;2023-07-20T06:11:55;98263.19;;;33.39;30.30
19259;BME280;9763;48.780;9.212;2023-07-20T06:15:27;98256.50;;;32.91;30.11
19259;BME280;9763;48.780;9.212;2023-07-20T06:18:51;98261.28;;;32.39;30.14
19259;BME280;9763;48.780;9.212;2023-07-20T06:22:16;98263.72;;;31.83;29.67
19259;BME280;9763;48.780;9.212;2023-07-20T06:25:40;98262.13;;;31.47;30.01
19259;BME280;9763;48.780;9.212;2023-07-20T06:29:03;98261.56;;;31.34;30.00
19259;BME280;9763;48.780;9.212;2023-07-20T06:32:28;98259.25;;;31.26;30.66
19259;BME280;9763;48.780;9.212;2023-07-20T06:35:52;98242.47;;;31.12;30.03
19259;BME280;9763;48.780;9.212;2023-07-20T06:39:17;98251.47;;;31.06;30.76
19259;BME280;9763;48.780;9.212;2023-07-20T06:42:44;98257.09;;;30.93;30.79
19259;BME280;9763;48.780;9.212;2023-07-20T06:46:10;98263.22;;;31.35;30.27
19259;BME280;9763;48.780;9.212;2023-07-20T06:49:34;98247.44;;;31.67;30.59
19259;BME280;9763;48.780;9.212;2023-07-20T06:52:57;98254.06;;;32.28;29.94
19259;BME280;9763;48.780;9.212;2023-07-20T06:56:23;98245.84;;;33.01;30.11
19259;BME280;9763;48.780;9.212;2023-07-20T06:59:49;98254.91;;;33.89;29.62
19259;BME280;9763;48.780;9.212;2023-07-20T07:03:12;98249.75;;;34.68;28.64
19259;BME280;9763;48.780;9.212;2023-07-20T07:06:37;98249.22;;;34.71;28.42
19259;BME280;9763;48.780;9.212;2023-07-20T07:10:01;98258.69;;;34.63;28.22
19259;BME280;9763;48.780;9.212;2023-07-20T07:13:28;98248.72;;;34.74;27.40
19259;BME280;9763;48.780;9.212;2023-07-20T07:16:52;98255.91;;;35.27;27.79
19259;BME280;9763;48.780;9.212;2023-07-20T07:20:19;98241.88;;;35.98;27.24
19259;BME280;9763;48.780;9.212;2023-07-20T07:23:45;98244.41;;;36.60;26.64
19259;BME280;9763;48.780;9.212;2023-07-20T07:27:09;98235.41;;;37.31;26.16
19259;BME280;9763;48.780;9.212;2023-07-20T07:30:34;98233.50;;;37.96;25.91
19259;BME280;9763;48.780;9.212;2023-07-20T07:33:58;98231.03;;;38.43;25.54
19259;BME280;9763;48.780;9.212;2023-07-20T07:37:21;98230.16;;;38.87;24.94
19259;BME280;9763;48.780;9.212;2023-07-20T07:40:45;98225.78;;;39.44;24.52
19259;BME280;9763;48.780;9.212;2023-07-20T07:44:09;98230.09;;;39.92;24.21
19259;BME280;9763;48.780;9.212;2023-07-20T07:47:34;98230.03;;;40.35;23.67
19259;BME280;9763;48.780;9.212;2023-07-20T07:50:58;98224.53;;;40.73;23.02
19259;BME280;9763;48.780;9.212;2023-07-20T07:54:21;98226.31;;;41.10;22.48
19259;BME280;9763;48.780;9.212;2023-07-20T07:57:45;98221.91;;;41.41;21.96
19259;BME280;9763;48.780;9.212;2023-07-20T08:01:09;98218.66;;;41.53;21.81
19259;BME280;9763;48.780;9.212;2023-07-20T08:04:35;98221.09;;;41.13;21.22
19259;BME280;9763;48.780;9.212;2023-07-20T08:07:58;98217.44;;;41.59;20.98
19259;BME280;9763;48.780;9.212;2023-07-20T08:11:22;98224.63;;;41.82;20.66
19259;BME280;9763;48.780;9.212;2023-07-20T08:14:46;98220.16;;;40.72;21.21
19259;BME280;9763;48.780;9.212;2023-07-20T08:18:10;98219.22;;;39.87;21.94
19259;BME280;9763;48.780;9.212;2023-07-20T08:21:35;98216.09;;;38.75;22.14
19259;BME280;9763;48.780;9.212;2023-07-20T08:24:58;98216.16;;;38.99;22.01
19259;BME280;9763;48.780;9.212;2023-07-20T08:28:22;98199.13;;;39.54;21.39
19259;BME280;9763;48.780;9.212;2023-07-20T08:31:46;98207.16;;;38.93;21.54
19259;BME280;9763;48.780;9.212;2023-07-20T08:35:11;98217.94;;;38.01;21.95
19259;BME280;9763;48.780;9.212;2023-07-20T08:38:38;98222.66;;;36.91;22.39
19259;BME280;9763;48.780;9.212;2023-07-20T08:42:04;98220.63;;;35.85;22.85
19259;BME280;9763;48.780;9.212;2023-07-20T08:45:33;98232.59;;;35.31;23.41
19259;BME280;9763;48.780;9.212;2023-07-20T08:48:58;98211.25;;;34.71;23.26
19259;BME280;9763;48.780;9.212;2023-07-20T08:52:26;98219.06;;;35.36;23.59
19259;BME280;9763;48.780;9.212;2023-07-20T08:55:52;98212.03;;;36.84;22.89
19259;BME280;9763;48.780;9.212;2023-07-20T08:59:17;98221.38;;;37.68;21.93
19259;BME280;9763;48.780;9.212;2023-07-20T09:02:45;98211.69;;;37.36;21.90
19259;BME280;9763;48.780;9.212;2023-07-20T09:06:10;98209.72;;;37.47;21.86
19259;BME280;9763;48.780;9.212;2023-07-20T09:09:39;98215.81;;;38.37;21.38
19259;BME280;9763;48.780;9.212;2023-07-20T09:13:05;98201.00;;;39.59;20.78
19259;BME280;9763;48.780;9.212;2023-07-20T09:16:32;98191.81;;;40.81;20.41
19259;BME280;9763;48.780;9.212;2023-07-20T09:19:56;98183.03;;;41.25;19.71
19259;BME280;9763;48.780;9.212;2023-07-20T09:23:19;98194.06;;;40.23;19.92
19259;BME280;9763;48.780;9.212;2023-07-20T09:26:46;98196.00;;;38.27;20.85
19259;BME280;9763;48.780;9.212;2023-07-20T09:30:13;98208.25;;;36.95;21.63
19259;BME280;9763;48.780;9.212;2023-07-20T09:33:54;98198.75;;;37.72;20.94
19259;BME280;9763;48.780;9.212;2023-07-20T09:37:21;98210.59;;;38.41;20.62
19259;BME280;9763;48.780;9.212;2023-07-20T09:40:45;98209.16;;;37.65;20.99
19259;BME280;9763;48.780;9.212;2023-07-20T09:44:14;98202.78;;;36.29;21.39
19259;BME280;9763;48.780;9.212;2023-07-20T09:47:42;98195.00;;;35.70;21.94
19259;BME280;9763;48.780;9.212;2023-07-20T09:51:07;98205.72;;;36.13;21.62
19259;BME280;9763;48.780;9.212;2023-07-20T09:54:32;98197.91;;;36.87;21.56
19259;BME280;9763;48.780;9.212;2023-07-20T09:57:56;98189.53;;;37.63;20.94
19259;BME280;9763;48.780;9.212;2023-07-20T10:01:21;98197.53;;;37.94;20.38
19259;BME280;9763;48.780;9.212;2023-07-20T10:04:52;98195.66;;;37.14;20.65
19259;BME280;9763;48.780;9.212;2023-07-20T10:08:18;98189.16;;;36.19;21.49
19259;BME280;9763;48.780;9.212;2023-07-20T10:11:50;98181.97;;;35.72;22.00
19259;BME280;9763;48.780;9.212;2023-07-20T10:15:41;98190.75;;;35.27;21.78
19259;BME280;9763;48.780;9.212;2023-07-20T10:19:11;98172.97;;;35.04;22.10
19259;BME280;9763;48.780;9.212;2023-07-20T10:22:42;98174.72;;;36.03;21.47
19259;BME280;9763;48.780;9.212;2023-07-20T10:26:09;98170.41;;;36.63;21.21
19259;BME280;9763;48.780;9.212;2023-07-20T10:29:34;98159.28;;;36.29;20.79
19259;BME280;9763;48.780;9.212;2023-07-20T10:32:58;98168.38;;;35.67;21.27
19259;BME280;9763;48.780;9.212;2023-07-20T10:36:26;98153.00;;;35.98;20.94
19259;BME280;9763;48.780;9.212;2023-07-20T10:39:55;98171.16;;;37.20;20.22
19259;BME280;9763;48.780;9.212;2023-07-20T10:43:19;98154.16;;;38.70;19.62
19259;BME280;9763;48.780;9.212;2023-07-20T10:46:45;98151.88;;;39.54;18.99
19259;BME280;9763;48.780;9.212;2023-07-20T10:50:10;98143.03;;;40.00;18.32
19259;BME280;9763;48.780;9.212;2023-07-20T10:53:35;98144.84;;;40.42;18.19
19259;BME280;9763;48.780;9.212;2023-07-20T10:57:30;98141.72;;;40.62;17.95
19259;BME280;9763;48.780;9.212;2023-07-20T11:00:57;98098.34;;;40.55;17.64
19259;BME280;9763;48.780;9.212;2023-07-20T11:04:39;98137.41;;;39.91;17.91
19259;BME280;9763;48.780;9.212;2023-07-20T11:08:09;98140.63;;;40.12;18.04
19259;BME280;9763;48.780;9.212;2023-07-20T11:11:35;98125.56;;;40.79;17.57
19259;BME280;9763;48.780;9.212;2023-07-20T11:15:00;98137.84;;;41.23;16.90
19259;BME280;9763;48.780;9.212;2023-07-20T11:18:26;98138.03;;;40.99;16.99
19259;BME280;9763;48.780;9.212;2023-07-20T11:21:51;98135.41;;;41.35;16.98
19259;BME280;9763;48.780;9.212;2023-07-20T11:25:25;98123.50;;;41.53;16.60
19259;BME280;9763;48.780;9.212;2023-07-20T11:28:49;98140.66;;;41.72;16.33
19259;BME280;9763;48.780;9.212;2023-07-20T11:32:20;98128.31;;;41.84;15.86
19259;BME280;9763;48.780;9.212;2023-07-20T11:35:45;98135.16;;;42.09;15.45
19259;BME280;9763;48.780;9.212;2023-07-20T11:39:10;98123.84;;;41.38;16.02
19259;BME280;9763;48.780;9.212;2023-07-20T11:42:33;98122.47;;;41.77;16.15
19259;BME280;9763;48.780;9.212;2023-07-20T11:46:00;98120.97;;;42.60;15.69
19259;BME280;9763;48.780;9.212;2023-07-20T11:49:26;98118.88;;;41.26;15.98
19259;BME280;9763;48.780;9.212;2023-07-20T11:52:50;98127.13;;;39.45;16.94
19259;BME280;9763;48.780;9.212;2023-07-20T11:56:14;98123.88;;;38.38;17.64
19259;BME280;9763;48.780;9.212;2023-07-20T11:59:52;98111.81;;;38.97;16.82
19259;BME280;9763;48.780;9.212;2023-07-20T12:03:18;98106.66;;;39.99;16.41
19259;BME280;9763;48.780;9.212;2023-07-20T12:06:45;98104.66;;;41.38;16.14
19259;BME280;9763;48.780;9.212;2023-07-20T12:10:11;98097.34;;;41.33;15.96
19259;BME280;9763;48.780;9.212;2023-07-20T12:13:42;98104.16;;;41.22;16.19
19259;BME280;9763;48.780;9.212;2023-07-20T12:17:08;98086.38;;;41.83;15.57
19259;BME280;9763;48.780;9.212;2023-07-20T12:20:34;98090.06;;;42.46;15.25
19259;BME280;9763;48.780;9.212;2023-07-20T12:24:00;98072.88;;;42.62;15.22
19259;BME280;9763;48.780;9.212;2023-07-20T12:27:28;98061.22;;;42.34;15.26
19259;BME280;9763;48.780;9.212;2023-07-20T12:30:51;98077.91;;;40.80;14.87
19259;BME280;9763;48.780;9.212;2023-07-20T12:34:19;98085.78;;;39.28;16.36
19259;BME280;9763;48.780;9.212;2023-07-20T12:37:42;98082.41;;;39.36;16.49
19259;BME280;9763;48.780;9.212;2023-07-20T12:41:11;98069.66;;;40.20;16.27
19259;BME280;9763;48.780;9.212;2023-07-20T12:44:36;98064.34;;;40.43;15.94
19259;BME280;9763;48.780;9.212;2023-07-20T12:47:59;98069.63;;;40.53;15.59
19259;BME280;9763;48.780;9.212;2023-07-20T12:51:23;98061.13;;;40.54;15.87
19259;BME280;9763;48.780;9.212;2023-07-20T12:54:47;98058.50;;;41.04;15.39
19259;BME280;9763;48.780;9.212;2023-07-20T12:58:12;98048.47;;;40.99;15.06
19259;BME280;9763;48.780;9.212;2023-07-20T13:01:36;98055.41;;;40.37;15.25
19259;BME280;9763;48.780;9.212;2023-07-20T13:05:00;98051.75;;;38.97;16.19
19259;BME280;9763;48.780;9.212;2023-07-20T13:08:24;98040.22;;;38.57;16.57
19259;BME280;9763;48.780;9.212;2023-07-20T13:11:49;98051.13;;;38.81;16.11
19259;BME280;9763;48.780;9.212;2023-07-20T13:15:14;98048.78;;;39.73;15.94
19259;BME280;9763;48.780;9.212;2023-07-20T13:18:38;98039.22;;;40.08;15.86
19259;BME280;9763;48.780;9.212;2023-07-20T13:22:02;98038.47;;;39.51;16.27
19259;BME280;9763;48.780;9.212;2023-07-20T13:25:25;98035.63;;;39.75;16.16
19259;BME280;9763;48.780;9.212;2023-07-20T13:28:50;98024.31;;;40.33;15.35
19259;BME280;9763;48.780;9.212;2023-07-20T13:32:16;98030.31;;;40.76;15.22
19259;BME280;9763;48.780;9.212;2023-07-20T13:35:40;98021.94;;;41.09;15.50
19259;BME280;9763;48.780;9.212;2023-07-20T13:39:07;98014.97;;;40.61;15.80
19259;BME280;9763;48.780;9.212;2023-07-20T13:42:31;98011.31;;;39.60;16.30
19259;BME280;9763;48.780;9.212;2023-07-20T13:45:55;98030.56;;;38.65;16.58
19259;BME280;9763;48.780;9.212;2023-07-20T13:49:20;98032.72;;;37.42;17.37
19259;BME280;9763;48.780;9.212;2023-07-20T13:52:45;98019.56;;;37.05;17.81
19259;BME280;9763;48.780;9.212;2023-07-20T13:56:08;98009.44;;;36.46;18.11
19259;BME280;9763;48.780;9.212;2023-07-20T13:59:35;98011.63;;;35.63;18.91
19259;BME280;9763;48.780;9.212;2023-07-20T14:02:58;98013.13;;;34.98;19.28
19259;BME280;9763;48.780;9.212;2023-07-20T14:06:32;98009.59;;;34.45;19.54
19259;BME280;9763;48.780;9.212;2023-07-20T14:09:56;98009.88;;;34.07;19.66
19259;BME280;9763;48.780;9.212;2023-07-20T14:13:23;98008.69;;;33.60;20.18
19259;BME280;9763;48.780;9.212;2023-07-20T14:17:06;98003.94;;;33.19;20.07
19259;BME280;9763;48.780;9.212;2023-07-20T14:20:30;98007.44;;;32.92;20.85
19259;BME280;9763;48.780;9.212;2023-07-20T14:23:55;97996.38;;;32.72;20.54
19259;BME280;9763;48.780;9.212;2023-07-20T14:27:23;97990.66;;;32.52;21.28
19259;BME280;9763;48.780;9.212;2023-07-20T14:30:47;97999.72;;;32.41;20.92
19259;BME280;9763;48.780;9.212;2023-07-20T14:34:12;97991.97;;;32.28;20.97
19259;BME280;9763;48.780;9.212;2023-07-20T14:37:37;97991.47;;;32.14;21.47
19259;BME280;9763;48.780;9.212;2023-07-20T14:41:02;97978.88;;;32.03;21.34
19259;BME280;9763;48.780;9.212;2023-07-20T14:44:29;97977.91;;;31.92;21.06
19259;BME280;9763;48.780;9.212;2023-07-20T14:47:53;97968.94;;;31.70;21.65
19259;BME280;9763;48.780;9.212;2023-07-20T14:51:17;97974.34;;;31.70;21.39
19259;BME280;9763;48.780;9.212;2023-07-20T14:54:40;97979.88;;;31.63;21.38
19259;BME280;9763;48.780;9.212;2023-07-20T14:58:05;97977.31;;;31.57;21.75
19259;BME280;9763;48.780;9.212;2023-07-20T15:01:29;97978.88;;;31.52;21.36
19259;BME280;9763;48.780;9.212;2023-07-20T15:04:53;97979.75;;;31.41;21.00
19259;BME280;9763;48.780;9.212;2023-07-20T15:08:18;97980.16;;;31.33;21.12
19259;BME280;9763;48.780;9.212;2023-07-20T15:11:42;97972.78;;;31.29;21.19
19259;BME280;9763;48.780;9.212;2023-07-20T15:15:09;97969.19;;;31.23;21.76
19259;BME280;9763;48.780;9.212;2023-07-20T15:18:33;97969.44;;;31.22;21.31
19259;BME280;9763;48.780;9.212;2023-07-20T15:22:09;97968.28;;;31.18;21.32
19259;BME280;9763;48.780;9.212;2023-07-20T15:25:33;97945.69;;;31.07;22.00
19259;BME280;9763;48.780;9.212;2023-07-20T15:28:58;97952.84;;;31.13;22.00
19259;BME280;9763;48.780;9.212;2023-07-20T15:32:23;97944.34;;;31.21;22.07
19259;BME280;9763;48.780;9.212;2023-07-20T15:35:47;97941.75;;;31.26;22.06
19259;BME280;9763;48.780;9.212;2023-07-20T15:39:10;97950.09;;;31.25;22.22
19259;BME280;9763;48.780;9.212;2023-07-20T15:42:34;97954.06;;;31.22;22.50
19259;BME280;9763;48.780;9.212;2023-07-20T15:46:45;97942.06;;;31.13;21.76
19259;BME280;9763;48.780;9.212;2023-07-20T15:50:12;97935.03;;;31.12;22.41
19259;BME280;9763;48.780;9.212;2023-07-20T15:53:36;97935.03;;;31.12;21.67
19259;BME280;9763;48.780;9.212;2023-07-20T15:57:00;97929.88;;;31.10;22.46
19259;BME280;9763;48.780;9.212;2023-07-20T16:00:23;97930.78;;;31.04;22.28
19259;BME280;9763;48.780;9.212;2023-07-20T16:03:47;97935.53;;;30.97;21.88
19259;BME280;9763;48.780;9.212;2023-07-20T16:07:12;97914.97;;;30.79;22.51
19259;BME280;9763;48.780;9.212;2023-07-20T16:10:36;97922.50;;;30.77;22.25
19259;BME280;9763;48.780;9.212;2023-07-20T16:14:00;97922.97;;;30.74;21.92
19259;BME280;9763;48.780;9.212;2023-07-20T16:17:24;97917.25;;;30.71;22.57
19259;BME280;9763;48.780;9.212;2023-07-20T16:20:49;97926.16;;;30.71;22.14
19259;BME280;9763;48.780;9.212;2023-07-20T16:24:14;97918.88;;;30.72;22.62
19259;BME280;9763;48.780;9.212;2023-07-20T16:27:40;97915.94;;;30.73;22.22
19259;BME280;9763;48.780;9.212;2023-07-20T16:31:09;97916.66;;;30.69;22.11
19259;BME280;9763;48.780;9.212;2023-07-20T16:34:33;97921.00;;;30.70;22.11
19259;BME280;9763;48.780;9.212;2023-07-20T16:37:59;97911.25;;;30.69;22.56
19259;BME280;9763;48.780;9.212;2023-07-20T16:41:28;97916.91;;;30.67;22.25
19259;BME280;9763;48.780;9.212;2023-07-20T16:44:55;97919.50;;;30.62;22.36
19259;BME280;9763;48.780;9.212;2023-07-20T16:48:18;97917.53;;;30.58;23.14
19259;BME280;9763;48.780;9.212;2023-07-20T16:51:43;97914.13;;;30.51;22.24
19259;BME280;9763;48.780;9.212;2023-07-20T16:55:07;97917.09;;;30.37;22.21
19259;BME280;9763;48.780;9.212;2023-07-20T16:58:32;97905.06;;;30.28;22.67
19259;BME280;9763;48.780;9.212;2023-07-20T17:01:56;97919.13;;;30.19;22.15
19259;BME280;9763;48.780;9.212;2023-07-20T17:05:20;97916.78;;;30.11;22.14
19259;BME280;9763;48.780;9.212;2023-07-20T17:08:44;97910.13;;;30.01;22.86
19259;BME280;9763;48.780;9.212;2023-07-20T17:12:09;97911.31;;;29.94;23.07
19259;BME280;9763;48.780;9.212;2023-07-20T17:15:34;97915.38;;;29.85;22.58
19259;BME280;9763;48.780;9.212;2023-07-20T17:18:58;97911.53;;;29.81;22.61
19259;BME280;9763;48.780;9.212;2023-07-20T17:22:21;97914.22;;;29.69;22.74
19259;BME280;9763;48.780;9.212;2023-07-20T17:25:46;97900.28;;;29.60;23.08
19259;BME280;9763;48.780;9.212;2023-07-20T17:29:13;97902.97;;;29.60;23.27
19259;BME280;9763;48.780;9.212;2023-07-20T17:32:38;97917.38;;;29.54;23.13
19259;BME280;9763;48.780;9.212;2023-07-20T17:36:02;97917.25;;;29.49;23.45
19259;BME280;9763;48.780;9.212;2023-07-20T17:39:32;97916.09;;;29.45;22.72
19259;BME280;9763;48.780;9.212;2023-07-20T17:42:58;97915.13;;;29.40;23.23
19259;BME280;9763;48.780;9.212;2023-07-20T17:46:25;97917.09;;;29.32;22.69
19259;BME280;9763;48.780;9.212;2023-07-20T17:49:53;97919.88;;;29.26;22.75
19259;BME280;9763;48.780;9.212;2023-07-20T17:53:16;97911.78;;;29.14;23.40
19259;BME280;9763;48.780;9.212;2023-07-20T17:56:40;97920.41;;;29.05;23.07
19259;BME280;9763;48.780;9.212;2023-07-20T18:00:05;97933.00;;;28.92;23.09
19259;BME280;9763;48.780;9.212;2023-07-20T18:03:35;97920.34;;;28.81;23.34
19259;BME280;9763;48.780;9.212;2023-07-20T18:07:00;97922.50;;;28.73;23.62
19259;BME280;9763;48.780;9.212;2023-07-20T18:10:24;97917.44;;;28.64;23.08
19259;BME280;9763;48.780;9.212;2023-07-20T18:13:48;97920.66;;;28.55;23.84
19259;BME280;9763;48.780;9.212;2023-07-20T18:17:11;97910.69;;;28.44;23.85
19259;BME280;9763;48.780;9.212;2023-07-20T18:20:35;97913.00;;;28.40;23.29
19259;BME280;9763;48.780;9.212;2023-07-20T18:24:00;97910.41;;;28.34;23.98